sensor_id;sensor_type;location;lat;lon;timestamp;P1;durP1;ratioP1;P2;durP2;ratioP2
45232;SDS011;30969;51.052;17.056;2022-08-21T00:02:13;11.93;;;9.95;;
45232;SDS011;30969;51.052;17.056;2022-08-21T00:07:19;12.65;;;10.52;;
45232;SDS011;30969;51.052;17.056;2022-08-21T00:12:25;11.10;;;10.00;;
45232;SDS011;30969;51.052;17.056;2022-08-21T00:17:29;13.35;;;10.30;;
45232;SDS011;30969;51.052;17.056;2022-08-21T00:22:34;12.88;;;11.00;;
45232;SDS011;30969;51.052;17.056;2022-08-21T00:27:38;13.88;;;11.25;;
45232;SDS011;30969;51.052;17.056;2022-08-21T00:32:43;12.82;;;9.80;;
45232;SDS011;30969;51.052;17.056;2022-08-21T00:37:49;13.75;;;9.88;;
45232;SDS011;30969;51.052;17.056;2022-08-21T00:42:53;9.82;;;8.68;;
45232;SDS011;30969;51.052;17.056;2022-08-21T00:47:56;10.95;;;8.90;;
45232;SDS011;30969;51.052;17.056;2022-08-21T00:53:02;9.50;;;7.35;;
45232;SDS011;30969;51.052;17.056;2022-08-21T00:58:08;10.23;;;7.80;;
45232;SDS011;30969;51.052;17.056;2022-08-21T01:03:18;10.23;;;8.77;;
45232;SDS011;30969;51.052;17.056;2022-08-21T01:08:26;9.63;;;7.38;;
45232;SDS011;30969;51.052;17.056;2022-08-21T01:13:32;7.13;;;6.30;;
45232;SDS011;30969;51.052;17.056;2022-08-21T01:18:39;6.70;;;5.82;;
45232;SDS011;30969;51.052;17.056;2022-08-21T01:23:45;7.45;;;6.45;;
45232;SDS011;30969;51.052;17.056;2022-08-21T01:28:52;6.80;;;5.45;;
45232;SDS011;30969;51.052;17.056;2022-08-21T01:34:00;6.72;;;4.43;;
45232;SDS011;30969;51.052;17.056;2022-08-21T01:39:05;4.57;;;3.95;;
45232;SDS011;30969;51.052;17.056;2022-08-21T01:44:09;7.70;;;5.80;;
45232;SDS011;30969;51.052;17.056;2022-08-21T01:49:12;8.57;;;6.43;;
45232;SDS011;30969;51.052;17.056;2022-08-21T01:54:17;8.00;;;5.82;;
45232;SDS011;30969;51.052;17.056;2022-08-21T01:59:20;5.00;;;4.50;;
45232;SDS011;30969;51.052;17.056;2022-08-21T02:04:25;6.50;;;5.10;;
45232;SDS011;30969;51.052;17.056;2022-08-21T02:09:30;5.40;;;4.70;;
45232;SDS011;30969;51.052;17.056;2022-08-21T02:14:34;7.05;;;4.40;;
45232;SDS011;30969;51.052;17.056;2022-08-21T02:19:37;4.72;;;3.85;;
45232;SDS011;30969;51.052;17.056;2022-08-21T02:24:43;4.32;;;3.60;;
45232;SDS011;30969;51.052;17.056;2022-08-21T02:29:56;2.97;;;2.55;;
45232;SDS011;30969;51.052;17.056;2022-08-21T02:35:00;4.45;;;3.00;;
45232;SDS011;30969;51.052;17.056;2022-08-21T02:40:05;2.80;;;2.35;;
45232;SDS011;30969;51.052;17.056;2022-08-21T02:45:11;4.32;;;2.33;;
45232;SDS011;30969;51.052;17.056;2022-08-21T02:50:17;3.72;;;2.40;;
45232;SDS011;30969;51.052;17.056;2022-08-21T02:55:24;3.97;;;2.50;;
45232;SDS011;30969;51.052;17.056;2022-08-21T03:00:29;4.07;;;2.67;;
45232;SDS011;30969;51.052;17.056;2022-08-21T03:05:35;2.92;;;2.53;;
45232;SDS011;30969;51.052;17.056;2022-08-21T03:10:42;3.13;;;2.75;;
45232;SDS011;30969;51.052;17.056;2022-08-21T03:15:47;2.45;;;2.00;;
45232;SDS011;30969;51.052;17.056;2022-08-21T03:20:50;12.60;;;2.42;;
45232;SDS011;30969;51.052;17.056;2022-08-21T03:25:56;3.10;;;2.40;;
45232;SDS011;30969;51.052;17.056;2022-08-21T03:30:59;2.55;;;2.35;;
45232;SDS011;30969;51.052;17.056;2022-08-21T03:36:04;2.92;;;2.25;;
45232;SDS011;30969;51.052;17.056;2022-08-21T03:41:10;2.95;;;1.83;;
45232;SDS011;30969;51.052;17.056;2022-08-21T03:46:14;2.28;;;1.92;;
45232;SDS011;30969;51.052;17.056;2022-08-21T03:51:17;2.08;;;1.80;;
45232;SDS011;30969;51.052;17.056;2022-08-21T03:56:22;8.18;;;2.70;;
45232;SDS011;30969;51.052;17.056;2022-08-21T04:01:26;3.20;;;2.58;;
45232;SDS011;30969;51.052;17.056;2022-08-21T04:06:29;2.80;;;2.20;;
45232;SDS011;30969;51.052;17.056;2022-08-21T04:11:39;2.60;;;2.30;;
45232;SDS011;30969;51.052;17.056;2022-08-21T04:16:43;3.05;;;2.40;;
45232;SDS011;30969;51.052;17.056;2022-08-21T04:21:47;3.13;;;2.83;;
45232;SDS011;30969;51.052;17.056;2022-08-21T04:26:54;7.32;;;2.67;;
45232;SDS011;30969;51.052;17.056;2022-08-21T04:31:58;4.38;;;2.92;;
45232;SDS011;30969;51.052;17.056;2022-08-21T04:37:01;6.97;;;2.92;;
45232;SDS011;30969;51.052;17.056;2022-08-21T04:42:06;3.03;;;2.58;;
45232;SDS011;30969;51.052;17.056;2022-08-21T04:47:10;2.72;;;2.53;;
45232;SDS011;30969;51.052;17.056;2022-08-21T04:52:14;4.03;;;2.70;;
45232;SDS011;30969;51.052;17.056;2022-08-21T04:57:22;2.95;;;2.60;;
45232;SDS011;30969;51.052;17.056;2022-08-21T05:02:47;3.83;;;2.88;;
45232;SDS011;30969;51.052;17.056;2022-08-21T05:07:56;3.20;;;2.22;;
45232;SDS011;30969;51.052;17.056;2022-08-21T05:13:02;3.15;;;1.95;;
45232;SDS011;30969;51.052;17.056;2022-08-21T05:18:07;2.70;;;2.33;;
45232;SDS011;30969;51.052;17.056;2022-08-21T05:23:11;3.30;;;2.35;;
45232;SDS011;30969;51.052;17.056;2022-08-21T05:28:17;6.15;;;2.20;;
45232;SDS011;30969;51.052;17.056;2022-08-21T05:33:20;2.30;;;1.90;;
45232;SDS011;30969;51.052;17.056;2022-08-21T05:38:24;4.47;;;2.35;;
45232;SDS011;30969;51.052;17.056;2022-08-21T05:43:30;2.72;;;2.30;;
45232;SDS011;30969;51.052;17.056;2022-08-21T05:48:34;2.90;;;2.30;;
45232;SDS011;30969;51.052;17.056;2022-08-21T05:53:39;3.10;;;2.15;;
45232;SDS011;30969;51.052;17.056;2022-08-21T05:58:45;5.10;;;2.20;;
45232;SDS011;30969;51.052;17.056;2022-08-21T06:03:48;4.00;;;2.38;;
45232;SDS011;30969;51.052;17.056;2022-08-21T06:08:54;2.92;;;2.40;;
45232;SDS011;30969;51.052;17.056;2022-08-21T06:13:58;3.67;;;2.10;;
45232;SDS011;30969;51.052;17.056;2022-08-21T06:19:02;4.70;;;2.35;;
45232;SDS011;30969;51.052;17.056;2022-08-21T06:24:06;2.78;;;2.35;;
45232;SDS011;30969;51.052;17.056;2022-08-21T06:29:12;5.00;;;2.55;;
45232;SDS011;30969;51.052;17.056;2022-08-21T06:34:18;3.67;;;2.45;;
45232;SDS011;30969;51.052;17.056;2022-08-21T06:39:22;2.90;;;2.35;;
45232;SDS011;30969;51.052;17.056;2022-08-21T06:44:34;3.25;;;2.10;;
45232;SDS011;30969;51.052;17.056;2022-08-21T06:49:37;3.63;;;2.50;;
45232;SDS011;30969;51.052;17.056;2022-08-21T06:54:41;3.85;;;2.00;;
45232;SDS011;30969;51.052;17.056;2022-08-21T06:59:46;4.18;;;2.20;;
45232;SDS011;30969;51.052;17.056;2022-08-21T07:04:49;5.07;;;2.67;;
45232;SDS011;30969;51.052;17.056;2022-08-21T07:09:53;5.65;;;3.05;;
45232;SDS011;30969;51.052;17.056;2022-08-21T07:14:58;5.35;;;3.63;;
45232;SDS011;30969;51.052;17.056;2022-08-21T07:20:02;5.00;;;3.38;;
45232;SDS011;30969;51.052;17.056;2022-08-21T07:25:07;7.57;;;3.38;;
45232;SDS011;30969;51.052;17.056;2022-08-21T07:30:12;5.45;;;3.72;;
45232;SDS011;30969;51.052;17.056;2022-08-21T07:35:16;6.07;;;3.95;;
45232;SDS011;30969;51.052;17.056;2022-08-21T07:40:20;5.57;;;3.58;;
45232;SDS011;30969;51.052;17.056;2022-08-21T07:45:25;7.68;;;3.70;;
45232;SDS011;30969;51.052;17.056;2022-08-21T07:50:29;5.55;;;3.85;;
45232;SDS011;30969;51.052;17.056;2022-08-21T07:55:33;7.18;;;3.95;;
45232;SDS011;30969;51.052;17.056;2022-08-21T08:00:38;7.97;;;3.90;;
45232;SDS011;30969;51.052;17.056;2022-08-21T08:05:43;6.60;;;4.10;;
45232;SDS011;30969;51.052;17.056;2022-08-21T08:10:46;5.65;;;3.40;;
45232;SDS011;30969;51.052;17.056;2022-08-21T08:15:52;4.75;;;2.83;;
45232;SDS011;30969;51.052;17.056;2022-08-21T08:20:55;3.70;;;2.72;;
45232;SDS011;30969;51.052;17.056;2022-08-21T08:25:59;6.13;;;2.67;;
45232;SDS011;30969;51.052;17.056;2022-08-21T08:31:06;4.25;;;2.75;;
45232;SDS011;30969;51.052;17.056;2022-08-21T08:36:12;3.15;;;2.38;;
45232;SDS011;30969;51.052;17.056;2022-08-21T08:41:17;6.85;;;2.72;;
45232;SDS011;30969;51.052;17.056;2022-08-21T08:46:26;4.15;;;2.65;;
45232;SDS011;30969;51.052;17.056;2022-08-21T08:51:37;4.70;;;2.97;;
45232;SDS011;30969;51.052;17.056;2022-08-21T08:56:45;5.78;;;2.70;;
45232;SDS011;30969;51.052;17.056;2022-08-21T09:01:50;4.85;;;3.00;;
45232;SDS011;30969;51.052;17.056;2022-08-21T09:06:57;6.03;;;3.35;;
45232;SDS011;30969;51.052;17.056;2022-08-21T09:12:21;6.05;;;3.70;;
45232;SDS011;30969;51.052;17.056;2022-08-21T09:17:38;5.03;;;3.40;;
45232;SDS011;30969;51.052;17.056;2022-08-21T09:22:53;4.85;;;3.10;;
45232;SDS011;30969;51.052;17.056;2022-08-21T09:28:07;6.72;;;3.03;;
45232;SDS011;30969;51.052;17.056;2022-08-21T09:33:15;3.90;;;2.63;;
45232;SDS011;30969;51.052;17.056;2022-08-21T09:38:24;5.25;;;2.92;;
45232;SDS011;30969;51.052;17.056;2022-08-21T09:43:30;6.45;;;4.00;;
45232;SDS011;30969;51.052;17.056;2022-08-21T09:48:40;3.45;;;2.00;;
45232;SDS011;30969;51.052;17.056;2022-08-21T09:53:46;5.07;;;2.70;;
45232;SDS011;30969;51.052;17.056;2022-08-21T09:58:53;5.30;;;2.33;;
45232;SDS011;30969;51.052;17.056;2022-08-21T10:04:03;3.63;;;2.05;;
45232;SDS011;30969;51.052;17.056;2022-08-21T10:09:10;3.87;;;2.20;;
45232;SDS011;30969;51.052;17.056;2022-08-21T10:14:33;4.20;;;2.23;;
45232;SDS011;30969;51.052;17.056;2022-08-21T10:19:51;5.25;;;2.38;;
45232;SDS011;30969;51.052;17.056;2022-08-21T10:25:05;7.00;;;2.75;;
45232;SDS011;30969;51.052;17.056;2022-08-21T10:30:15;5.28;;;3.10;;
45232;SDS011;30969;51.052;17.056;2022-08-21T10:35:24;5.85;;;3.03;;
45232;SDS011;30969;51.052;17.056;2022-08-21T10:40:34;5.60;;;2.67;;
45232;SDS011;30969;51.052;17.056;2022-08-21T10:45:47;5.85;;;2.47;;
45232;SDS011;30969;51.052;17.056;2022-08-21T10:51:03;7.43;;;3.05;;
45232;SDS011;30969;51.052;17.056;2022-08-21T10:56:13;3.95;;;2.65;;
45232;SDS011;30969;51.052;17.056;2022-08-21T11:01:20;6.25;;;3.47;;
45232;SDS011;30969;51.052;17.056;2022-08-21T11:06:31;3.47;;;2.63;;
45232;SDS011;30969;51.052;17.056;2022-08-21T11:11:36;4.57;;;2.67;;
45232;SDS011;30969;51.052;17.056;2022-08-21T11:17:00;4.53;;;3.03;;
45232;SDS011;30969;51.052;17.056;2022-08-21T11:22:15;4.38;;;2.83;;
45232;SDS011;30969;51.052;17.056;2022-08-21T11:32:42;5.57;;;2.50;;
45232;SDS011;30969;51.052;17.056;2022-08-21T11:38:08;6.20;;;3.42;;
45232;SDS011;30969;51.052;17.056;2022-08-21T11:43:24;3.67;;;2.63;;
45232;SDS011;30969;51.052;17.056;2022-08-21T11:48:40;4.55;;;2.63;;
45232;SDS011;30969;51.052;17.056;2022-08-21T11:53:54;4.85;;;2.70;;
45232;SDS011;30969;51.052;17.056;2022-08-21T11:59:09;4.35;;;2.70;;
45232;SDS011;30969;51.052;17.056;2022-08-21T12:04:17;5.88;;;2.83;;
45232;SDS011;30969;51.052;17.056;2022-08-21T12:09:32;6.93;;;2.92;;
45232;SDS011;30969;51.052;17.056;2022-08-21T12:14:40;5.70;;;2.40;;
45232;SDS011;30969;51.052;17.056;2022-08-21T12:19:45;5.03;;;2.97;;
45232;SDS011;30969;51.052;17.056;2022-08-21T12:25:05;4.85;;;2.80;;
45232;SDS011;30969;51.052;17.056;2022-08-21T12:30:19;6.03;;;2.42;;
45232;SDS011;30969;51.052;17.056;2022-08-21T12:35:32;6.45;;;2.90;;
45232;SDS011;30969;51.052;17.056;2022-08-21T12:40:42;6.78;;;3.30;;
45232;SDS011;30969;51.052;17.056;2022-08-21T12:45:51;6.40;;;2.67;;
45232;SDS011;30969;51.052;17.056;2022-08-21T12:51:04;5.90;;;2.72;;
45232;SDS011;30969;51.052;17.056;2022-08-21T12:56:17;6.72;;;3.50;;
45232;SDS011;30969;51.052;17.056;2022-08-21T13:01:23;5.50;;;2.95;;
45232;SDS011;30969;51.052;17.056;2022-08-21T13:06:31;3.72;;;2.70;;
45232;SDS011;30969;51.052;17.056;2022-08-21T13:11:45;5.30;;;2.97;;
45232;SDS011;30969;51.052;17.056;2022-08-21T13:16:53;5.97;;;2.97;;
45232;SDS011;30969;51.052;17.056;2022-08-21T13:21:59;6.88;;;2.70;;
45232;SDS011;30969;51.052;17.056;2022-08-21T13:27:29;5.90;;;3.22;;
45232;SDS011;30969;51.052;17.056;2022-08-21T13:32:33;6.57;;;3.20;;
45232;SDS011;30969;51.052;17.056;2022-08-21T13:37:42;7.00;;;3.22;;
45232;SDS011;30969;51.052;17.056;2022-08-21T13:42:48;5.55;;;3.05;;
45232;SDS011;30969;51.052;17.056;2022-08-21T13:47:52;5.50;;;2.85;;
45232;SDS011;30969;51.052;17.056;2022-08-21T13:52:58;4.18;;;2.80;;
45232;SDS011;30969;51.052;17.056;2022-08-21T13:58:05;7.40;;;3.33;;
45232;SDS011;30969;51.052;17.056;2022-08-21T14:03:09;5.15;;;3.08;;
45232;SDS011;30969;51.052;17.056;2022-08-21T14:08:20;5.50;;;2.95;;
45232;SDS011;30969;51.052;17.056;2022-08-21T14:13:35;5.20;;;3.40;;
45232;SDS011;30969;51.052;17.056;2022-08-21T14:18:45;4.72;;;2.88;;
45232;SDS011;30969;51.052;17.056;2022-08-21T14:23:58;7.80;;;3.38;;
45232;SDS011;30969;51.052;17.056;2022-08-21T14:29:08;4.05;;;3.00;;
45232;SDS011;30969;51.052;17.056;2022-08-21T14:34:12;4.80;;;2.92;;
45232;SDS011;30969;51.052;17.056;2022-08-21T14:39:20;4.13;;;2.60;;
45232;SDS011;30969;51.052;17.056;2022-08-21T14:44:25;5.05;;;2.92;;
45232;SDS011;30969;51.052;17.056;2022-08-21T14:49:29;7.32;;;3.30;;
45232;SDS011;30969;51.052;17.056;2022-08-21T14:54:34;5.22;;;3.17;;
45232;SDS011;30969;51.052;17.056;2022-08-21T14:59:39;6.25;;;3.50;;
45232;SDS011;30969;51.052;17.056;2022-08-21T15:04:43;5.15;;;3.20;;
45232;SDS011;30969;51.052;17.056;2022-08-21T15:09:46;3.85;;;2.92;;
45232;SDS011;30969;51.052;17.056;2022-08-21T15:14:51;7.13;;;3.65;;
45232;SDS011;30969;51.052;17.056;2022-08-21T15:19:55;5.03;;;3.28;;
45232;SDS011;30969;51.052;17.056;2022-08-21T15:24:58;7.85;;;3.70;;
45232;SDS011;30969;51.052;17.056;2022-08-21T15:30:04;5.38;;;3.35;;
45232;SDS011;30969;51.052;17.056;2022-08-21T15:35:10;4.70;;;3.50;;
45232;SDS011;30969;51.052;17.056;2022-08-21T15:40:14;6.80;;;4.15;;
45232;SDS011;30969;51.052;17.056;2022-08-21T15:45:19;6.32;;;4.00;;
45232;SDS011;30969;51.052;17.056;2022-08-21T15:50:23;6.60;;;3.85;;
45232;SDS011;30969;51.052;17.056;2022-08-21T15:55:28;6.68;;;4.50;;
45232;SDS011;30969;51.052;17.056;2022-08-21T16:00:34;7.93;;;4.00;;
45232;SDS011;30969;51.052;17.056;2022-08-21T16:05:38;6.07;;;3.72;;
45232;SDS011;30969;51.052;17.056;2022-08-21T16:10:41;4.68;;;3.88;;
45232;SDS011;30969;51.052;17.056;2022-08-21T16:15:46;7.40;;;3.70;;
45232;SDS011;30969;51.052;17.056;2022-08-21T16:20:50;4.72;;;3.78;;
45232;SDS011;30969;51.052;17.056;2022-08-21T16:25:54;6.90;;;3.85;;
45232;SDS011;30969;51.052;17.056;2022-08-21T16:31:02;5.45;;;3.65;;
45232;SDS011;30969;51.052;17.056;2022-08-21T16:36:06;4.85;;;3.42;;
45232;SDS011;30969;51.052;17.056;2022-08-21T16:41:12;5.10;;;3.42;;
45232;SDS011;30969;51.052;17.056;2022-08-21T16:46:19;5.40;;;3.38;;
45232;SDS011;30969;51.052;17.056;2022-08-21T16:51:24;4.22;;;2.85;;
45232;SDS011;30969;51.052;17.056;2022-08-21T16:56:27;5.15;;;3.50;;
45232;SDS011;30969;51.052;17.056;2022-08-21T17:01:33;5.38;;;3.15;;
45232;SDS011;30969;51.052;17.056;2022-08-21T17:06:39;4.47;;;2.67;;
45232;SDS011;30969;51.052;17.056;2022-08-21T17:11:43;3.05;;;2.67;;
45232;SDS011;30969;51.052;17.056;2022-08-21T17:16:52;2.95;;;2.25;;
45232;SDS011;30969;51.052;17.056;2022-08-21T17:21:57;3.42;;;2.80;;
45232;SDS011;30969;51.052;17.056;2022-08-21T17:27:01;3.88;;;2.83;;
45232;SDS011;30969;51.052;17.056;2022-08-21T17:32:09;3.95;;;2.83;;
45232;SDS011;30969;51.052;17.056;2022-08-21T17:37:14;4.20;;;2.13;;
45232;SDS011;30969;51.052;17.056;2022-08-21T17:42:17;4.15;;;2.10;;
45232;SDS011;30969;51.052;17.056;2022-08-21T17:47:24;2.88;;;1.77;;
45232;SDS011;30969;51.052;17.056;2022-08-21T17:52:28;4.45;;;1.90;;
45232;SDS011;30969;51.052;17.056;2022-08-21T17:57:33;3.25;;;2.22;;
45232;SDS011;30969;51.052;17.056;2022-08-21T18:02:39;2.58;;;2.05;;
45232;SDS011;30969;51.052;17.056;2022-08-21T18:07:46;5.32;;;2.10;;
45232;SDS011;30969;51.052;17.056;2022-08-21T18:12:50;3.28;;;1.83;;
45232;SDS011;30969;51.052;17.056;2022-08-21T18:17:55;4.43;;;2.03;;
45232;SDS011;30969;51.052;17.056;2022-08-21T18:22:59;2.70;;;1.92;;
45232;SDS011;30969;51.052;17.056;2022-08-21T18:28:04;4.18;;;2.55;;
45232;SDS011;30969;51.052;17.056;2022-08-21T18:33:11;3.65;;;1.98;;
45232;SDS011;30969;51.052;17.056;2022-08-21T18:38:15;9.50;;;4.90;;
45232;SDS011;30969;51.052;17.056;2022-08-21T18:43:20;4.32;;;2.15;;
45232;SDS011;30969;51.052;17.056;2022-08-21T18:48:26;3.85;;;2.03;;
45232;SDS011;30969;51.052;17.056;2022-08-21T18:53:30;4.18;;;2.40;;
45232;SDS011;30969;51.052;17.056;2022-08-21T18:58:36;4.63;;;2.55;;
45232;SDS011;30969;51.052;17.056;2022-08-21T19:03:41;3.58;;;2.35;;
45232;SDS011;30969;51.052;17.056;2022-08-21T19:08:45;3.70;;;2.30;;
45232;SDS011;30969;51.052;17.056;2022-08-21T19:13:49;3.35;;;2.28;;
45232;SDS011;30969;51.052;17.056;2022-08-21T19:18:56;4.07;;;2.90;;
45232;SDS011;30969;51.052;17.056;2022-08-21T19:24:01;3.47;;;2.25;;
45232;SDS011;30969;51.052;17.056;2022-08-21T19:29:18;3.67;;;2.65;;
45232;SDS011;30969;51.052;17.056;2022-08-21T19:34:37;4.88;;;2.38;;
45232;SDS011;30969;51.052;17.056;2022-08-21T19:39:46;4.53;;;2.60;;
45232;SDS011;30969;51.052;17.056;2022-08-21T19:44:51;5.07;;;3.47;;
45232;SDS011;30969;51.052;17.056;2022-08-21T19:50:00;4.78;;;2.97;;
45232;SDS011;30969;51.052;17.056;2022-08-21T19:55:26;5.53;;;2.13;;
45232;SDS011;30969;51.052;17.056;2022-08-21T20:00:30;5.22;;;2.40;;
45232;SDS011;30969;51.052;17.056;2022-08-21T20:05:35;2.97;;;2.28;;
45232;SDS011;30969;51.052;17.056;2022-08-21T20:10:40;4.22;;;2.10;;
45232;SDS011;30969;51.052;17.056;2022-08-21T20:15:45;4.82;;;2.30;;
45232;SDS011;30969;51.052;17.056;2022-08-21T20:20:50;3.38;;;2.38;;
45232;SDS011;30969;51.052;17.056;2022-08-21T20:25:55;5.28;;;2.53;;
45232;SDS011;30969;51.052;17.056;2022-08-21T20:31:02;5.72;;;2.50;;
45232;SDS011;30969;51.052;17.056;2022-08-21T20:36:11;6.32;;;2.63;;
45232;SDS011;30969;51.052;17.056;2022-08-21T20:41:21;4.57;;;2.90;;
45232;SDS011;30969;51.052;17.056;2022-08-21T20:46:31;3.80;;;2.70;;
45232;SDS011;30969;51.052;17.056;2022-08-21T20:51:38;3.58;;;2.70;;
45232;SDS011;30969;51.052;17.056;2022-08-21T20:56:47;7.53;;;4.45;;
45232;SDS011;30969;51.052;17.056;2022-08-21T21:01:56;7.18;;;4.07;;
45232;SDS011;30969;51.052;17.056;2022-08-21T21:07:15;5.72;;;3.08;;
45232;SDS011;30969;51.052;17.056;2022-08-21T21:12:24;4.15;;;2.80;;
45232;SDS011;30969;51.052;17.056;2022-08-21T21:17:32;4.45;;;2.78;;
45232;SDS011;30969;51.052;17.056;2022-08-21T21:22:43;5.60;;;3.30;;
45232;SDS011;30969;51.052;17.056;2022-08-21T21:27:51;4.93;;;2.88;;
45232;SDS011;30969;51.052;17.056;2022-08-21T21:32:57;4.20;;;3.10;;
45232;SDS011;30969;51.052;17.056;2022-08-21T21:38:06;4.68;;;3.08;;
45232;SDS011;30969;51.052;17.056;2022-08-21T21:43:17;4.43;;;3.00;;
45232;SDS011;30969;51.052;17.056;2022-08-21T21:48:44;6.18;;;3.38;;
45232;SDS011;30969;51.052;17.056;2022-08-21T21:53:58;5.18;;;3.35;;
45232;SDS011;30969;51.052;17.056;2022-08-21T21:59:18;9.20;;;5.00;;
45232;SDS011;30969;51.052;17.056;2022-08-21T22:04:33;10.10;;;4.40;;
45232;SDS011;30969;51.052;17.056;2022-08-21T22:09:53;6.95;;;3.10;;
45232;SDS011;30969;51.052;17.056;2022-08-21T22:15:06;8.75;;;3.70;;
45232;SDS011;30969;51.052;17.056;2022-08-21T22:20:11;6.93;;;3.15;;
45232;SDS011;30969;51.052;17.056;2022-08-21T22:25:20;9.43;;;3.20;;
45232;SDS011;30969;51.052;17.056;2022-08-21T22:30:36;5.13;;;3.38;;
45232;SDS011;30969;51.052;17.056;2022-08-21T22:35:46;7.03;;;3.47;;
45232;SDS011;30969;51.052;17.056;2022-08-21T22:40:54;5.20;;;3.40;;
45232;SDS011;30969;51.052;17.056;2022-08-21T22:46:12;9.27;;;3.97;;
45232;SDS011;30969;51.052;17.056;2022-08-21T22:51:29;5.63;;;3.53;;
45232;SDS011;30969;51.052;17.056;2022-08-21T22:56:37;7.72;;;3.88;;
45232;SDS011;30969;51.052;17.056;2022-08-21T23:01:45;4.78;;;3.20;;
45232;SDS011;30969;51.052;17.056;2022-08-21T23:06:55;5.28;;;3.30;;
45232;SDS011;30969;51.052;17.056;2022-08-21T23:12:04;5.30;;;2.92;;
45232;SDS011;30969;51.052;17.056;2022-08-21T23:17:31;4.63;;;3.13;;
45232;SDS011;30969;51.052;17.056;2022-08-21T23:22:51;5.68;;;3.58;;
45232;SDS011;30969;51.052;17.056;2022-08-21T23:28:05;4.55;;;3.42;;
45232;SDS011;30969;51.052;17.056;2022-08-21T23:33:26;7.20;;;3.60;;
45232;SDS011;30969;51.052;17.056;2022-08-21T23:38:43;6.32;;;3.50;;
45232;SDS011;30969;51.052;17.056;2022-08-21T23:44:00;3.30;;;2.70;;
45232;SDS011;30969;51.052;17.056;2022-08-21T23:49:17;6.40;;;2.97;;
45232;SDS011;30969;51.052;17.056;2022-08-21T23:54:32;8.43;;;3.80;;
45232;SDS011;30969;51.052;17.056;2022-08-21T23:59:49;5.85;;;3.60;;
